createdAt,value
2022-11-24T00:01:28.179Z,95.82
2022-11-24T00:04:01.790Z,95.53
2022-11-24T00:06:31.743Z,95.71
2022-11-24T00:09:00.497Z,97.58
2022-11-24T00:11:30.899Z,97.25
2022-11-24T00:14:00.119Z,95.42
2022-11-24T00:16:31.204Z,95.77
2022-11-24T00:19:05.125Z,95.21
2022-11-24T00:21:37.759Z,95.27
2022-11-24T00:24:10.696Z,96.13
2022-11-24T00:26:38.707Z,95.55
2022-11-24T00:29:08.291Z,96.13
2022-11-24T00:31:38.800Z,99.79
2022-11-24T00:34:14.896Z,97.10
2022-11-24T00:36:43.316Z,98.82
2022-11-24T00:39:16.029Z,95.65
2022-11-24T00:41:44.709Z,95.52
2022-11-24T00:44:13.032Z,95.18
2022-11-24T00:46:41.139Z,96.58
2022-11-24T00:49:09.735Z,95.37
2022-11-24T00:51:39.135Z,95.22
2022-11-24T00:54:10.225Z,94.91
2022-11-24T00:56:38.560Z,96.26
2022-11-24T00:59:09.730Z,95.02
2022-11-24T01:01:37.838Z,94.65
2022-11-24T01:04:06.310Z,94.49
2022-11-24T01:06:36.088Z,94.24
2022-11-24T01:09:04.772Z,94.92
2022-11-24T01:11:55.265Z,94.41
2022-11-24T01:14:25.175Z,93.99
2022-11-24T01:16:56.066Z,95.35
2022-11-24T01:19:24.654Z,94.25
2022-11-24T01:21:52.729Z,93.93
2022-11-24T01:24:23.892Z,93.80
2022-11-24T01:26:51.866Z,94.32
2022-11-24T01:29:20.155Z,94.51
2022-11-24T01:31:48.359Z,96.20
2022-11-24T01:34:19.504Z,94.67
2022-11-24T01:36:47.902Z,96.34
2022-11-24T01:39:15.934Z,93.97
2022-11-24T01:41:43.908Z,94.33
2022-11-24T01:44:27.464Z,95.39
2022-11-24T01:47:03.330Z,93.75
2022-11-24T01:49:31.731Z,96.22
2022-11-24T01:52:06.976Z,94.09
2022-11-24T01:54:53.825Z,95.22
2022-11-24T01:57:24.336Z,93.99
2022-11-24T01:59:59.874Z,94.07
2022-11-24T02:02:31.780Z,93.67
2022-11-24T02:05:10.000Z,93.95
2022-11-24T02:07:38.814Z,93.54
2022-11-24T02:10:13.961Z,93.63
2022-11-24T02:12:46.807Z,94.14
2022-11-24T02:15:35.853Z,93.10
2022-11-24T02:18:04.477Z,93.82
2022-11-24T02:20:32.691Z,93.13
2022-11-24T02:23:15.073Z,93.51
2022-11-24T02:25:49.387Z,96.99
2022-11-24T02:28:21.285Z,93.25
2022-11-24T02:30:54.711Z,93.83
2022-11-24T02:33:23.152Z,95.95
2022-11-24T02:35:52.544Z,93.46
2022-11-24T02:38:31.733Z,93.85
2022-11-24T02:41:04.306Z,93.25
2022-11-24T02:43:39.648Z,95.06
2022-11-24T02:46:08.718Z,92.60
2022-11-24T02:48:37.395Z,92.67
2022-11-24T02:51:05.864Z,94.70
2022-11-24T02:53:34.238Z,92.75
2022-11-24T02:56:02.196Z,92.96
2022-11-24T02:58:30.147Z,92.83
2022-11-24T03:01:00.100Z,93.43
2022-11-24T03:03:28.481Z,92.76
2022-11-24T03:05:56.387Z,95.41
2022-11-24T03:08:24.629Z,92.76
2022-11-24T03:10:52.469Z,92.42
2022-11-24T03:13:20.323Z,92.42
2022-11-24T03:15:49.059Z,93.46
2022-11-24T03:18:17.107Z,92.50
2022-11-24T03:20:47.877Z,92.76
2022-11-24T03:23:16.026Z,92.81
2022-11-24T03:25:43.878Z,94.07
2022-11-24T03:28:11.767Z,92.25
2022-11-24T03:30:39.968Z,92.75
2022-11-24T03:33:08.086Z,92.02
2022-11-24T03:35:36.026Z,92.29
2022-11-24T03:38:04.368Z,92.56
2022-11-24T03:40:35.327Z,95.13
2022-11-24T03:43:03.162Z,94.11
2022-11-24T03:45:49.569Z,93.18
2022-11-24T03:48:19.125Z,96.67
2022-11-24T03:50:59.011Z,92.50
2022-11-24T03:53:31.981Z,92.32
2022-11-24T03:56:00.751Z,92.49
2022-11-24T03:58:29.304Z,92.64
2022-11-24T04:00:58.325Z,92.87
2022-11-24T04:03:27.130Z,93.17
2022-11-24T04:05:55.055Z,92.15
2022-11-24T04:08:23.002Z,92.71
2022-11-24T04:10:53.840Z,93.82
2022-11-24T04:13:24.182Z,94.89
2022-11-24T04:15:52.724Z,92.39
2022-11-24T04:18:21.132Z,94.36
2022-11-24T04:20:55.224Z,96.61
2022-11-24T04:23:23.401Z,93.82
2022-11-24T04:25:51.198Z,93.48
2022-11-24T04:28:19.107Z,94.18
2022-11-24T04:30:47.407Z,92.39
2022-11-24T04:33:15.779Z,93.06
2022-11-24T04:35:46.413Z,95.98
2022-11-24T04:39:24.751Z,92.91
2022-11-24T04:41:03.734Z,93.06
2022-11-24T04:43:37.694Z,92.66
2022-11-24T04:46:11.559Z,92.08
2022-11-24T04:48:43.109Z,95.93
2022-11-24T04:51:15.636Z,96.98
2022-11-24T04:53:43.693Z,92.68
2022-11-24T04:56:11.576Z,93.20
2022-11-24T04:58:39.514Z,93.01
2022-11-24T05:01:08.849Z,91.82
2022-11-24T05:03:40.550Z,97.49
2022-11-24T05:06:09.337Z,96.07
2022-11-24T05:08:37.178Z,95.57
2022-11-24T05:11:07.426Z,95.03
2022-11-24T05:13:35.670Z,93.14
2022-11-24T05:16:06.891Z,92.41
2022-11-24T05:18:38.455Z,96.96
2022-11-24T05:21:06.406Z,95.90
2022-11-24T05:23:34.254Z,92.25
2022-11-24T05:26:06.088Z,91.72
2022-11-24T05:28:33.832Z,97.74
2022-11-24T05:31:03.730Z,92.49
2022-11-24T05:33:33.730Z,91.08
2022-11-24T05:36:06.597Z,92.12
2022-11-24T05:38:35.943Z,91.41
2022-11-24T05:41:07.032Z,91.82
2022-11-24T05:43:35.426Z,90.32
2022-11-24T05:46:03.436Z,90.69
2022-11-24T05:48:31.221Z,90.60
2022-11-24T05:50:59.651Z,93.92
2022-11-24T05:53:27.647Z,92.30
2022-11-24T05:55:55.558Z,91.26
2022-11-24T05:58:23.745Z,92.31
2022-11-24T06:00:51.953Z,90.07
2022-11-24T06:03:20.111Z,93.81
2022-11-24T06:05:48.093Z,89.88
2022-11-24T06:08:16.487Z,92.44
2022-11-24T06:10:44.581Z,95.97
2022-11-24T06:13:12.561Z,97.93
2022-11-24T06:15:41.250Z,90.59
2022-11-24T06:18:09.318Z,91.40
2022-11-24T06:20:37.257Z,92.08
2022-11-24T06:23:04.976Z,91.88
2022-11-24T06:25:35.986Z,94.42
2022-11-24T06:28:05.372Z,90.84
2022-11-24T06:30:33.643Z,95.05
2022-11-24T06:33:01.711Z,91.01
2022-11-24T06:35:29.530Z,91.29
2022-11-24T06:37:57.593Z,90.73
2022-11-24T06:40:25.493Z,91.09
2022-11-24T06:42:53.382Z,90.64
2022-11-24T06:45:21.544Z,90.02
2022-11-24T06:47:49.476Z,89.82
2022-11-24T06:50:17.371Z,89.76
2022-11-24T06:52:45.586Z,89.22
2022-11-24T06:55:13.441Z,89.82
2022-11-24T06:57:41.242Z,89.13
2022-11-24T07:00:09.944Z,88.49
2022-11-24T07:02:42.532Z,87.85
2022-11-24T07:05:16.878Z,88.45
2022-11-24T07:07:44.758Z,88.63
2022-11-24T07:10:13.082Z,87.82
2022-11-24T07:12:43.826Z,87.63
2022-11-24T07:15:14.815Z,87.55
2022-11-24T07:17:47.358Z,88.22
2022-11-24T07:20:15.213Z,87.89
2022-11-24T07:22:43.452Z,92.10
2022-11-24T07:25:11.319Z,89.66
2022-11-24T07:27:40.313Z,87.75
2022-11-24T07:30:11.873Z,87.18
2022-11-24T07:32:39.702Z,86.98
2022-11-24T07:35:07.948Z,86.71
2022-11-24T07:37:36.165Z,87.13
2022-11-24T07:40:04.487Z,91.60
2022-11-24T07:42:32.428Z,85.78
2022-11-24T07:45:00.629Z,86.30
2022-11-24T07:47:28.600Z,88.25
2022-11-24T07:49:59.576Z,88.48
2022-11-24T07:52:27.786Z,86.80
2022-11-24T07:54:55.582Z,87.20
2022-11-24T07:57:24.309Z,86.71
2022-11-24T07:59:53.571Z,86.43
2022-11-24T08:02:21.344Z,86.38
2022-11-24T08:04:49.586Z,86.57
2022-11-24T08:07:17.506Z,85.74
2022-11-24T08:09:45.260Z,85.30
2022-11-24T08:12:13.409Z,84.30
2022-11-24T08:14:41.259Z,84.26
2022-11-24T08:17:09.210Z,83.60
2022-11-24T08:19:37.507Z,81.60
2022-11-24T08:22:05.346Z,81.73
2022-11-24T08:24:33.255Z,81.15
2022-11-24T08:27:01.831Z,82.61
2022-11-24T08:29:31.222Z,82.66
2022-11-24T08:31:59.377Z,83.59
2022-11-24T08:34:27.730Z,84.66
2022-11-24T08:36:55.475Z,83.95
2022-11-24T08:39:23.532Z,84.70
2022-11-24T08:41:51.954Z,88.87
2022-11-24T08:44:19.700Z,85.52
2022-11-24T08:46:47.535Z,85.41
2022-11-24T08:49:16.269Z,86.70
2022-11-24T08:51:43.951Z,86.94
2022-11-24T08:54:13.819Z,86.84
2022-11-24T08:56:42.724Z,88.90
2022-11-24T08:59:14.192Z,87.13
2022-11-24T09:01:42.505Z,86.97
2022-11-24T09:04:10.382Z,87.52
2022-11-24T09:06:38.209Z,87.94
2022-11-24T09:09:06.266Z,87.95
2022-11-24T09:11:34.643Z,90.16
2022-11-24T09:14:02.495Z,93.36
2022-11-24T09:16:30.742Z,89.20
2022-11-24T09:19:03.454Z,86.92
2022-11-24T09:21:34.679Z,88.63
2022-11-24T09:24:02.633Z,91.90
2022-11-24T09:26:32.899Z,88.59
2022-11-24T09:29:03.127Z,88.55
2022-11-24T09:31:36.249Z,87.90
2022-11-24T09:34:07.459Z,88.16
2022-11-24T09:36:38.511Z,87.08
2022-11-24T09:39:06.818Z,88.36
2022-11-24T09:41:52.510Z,88.45
2022-11-24T09:44:26.466Z,86.92
2022-11-24T09:47:00.636Z,86.64
2022-11-24T09:49:49.844Z,86.92
2022-11-24T09:52:48.789Z,87.48
2022-11-24T09:55:35.292Z,88.25
2022-11-24T09:58:24.906Z,85.98
2022-11-24T10:00:57.541Z,87.95
2022-11-24T10:03:38.006Z,84.94
2022-11-24T10:06:38.634Z,85.15
2022-11-24T10:09:27.909Z,85.22
2022-11-24T10:12:27.845Z,87.07
2022-11-24T10:15:22.798Z,84.34
2022-11-24T10:18:17.409Z,89.07
2022-11-24T10:24:40.317Z,85.10
2022-11-24T10:27:18.587Z,86.00
2022-11-24T10:29:51.473Z,85.25
2022-11-24T10:42:01.499Z,88.90
2022-11-24T10:44:29.731Z,85.77
2022-11-24T10:46:58.019Z,89.99
2022-11-24T10:49:29.835Z,87.39
2022-11-24T10:52:03.658Z,87.75
2022-11-24T10:54:31.863Z,91.38
2022-11-24T10:57:03.539Z,87.62
2022-11-24T10:59:35.393Z,89.70
2022-11-24T11:02:26.817Z,87.45
2022-11-24T11:04:54.770Z,89.22
2022-11-24T11:07:26.555Z,87.63
2022-11-24T11:10:21.220Z,86.59
2022-11-24T11:12:50.138Z,95.03
2022-11-24T11:15:29.145Z,87.57
2022-11-24T11:18:01.461Z,88.26
2022-11-24T11:20:34.667Z,88.87
2022-11-24T11:23:17.187Z,91.11
2022-11-24T11:25:44.968Z,88.09
2022-11-24T11:28:29.900Z,92.76
2022-11-24T11:31:20.696Z,95.43
2022-11-24T11:34:04.125Z,90.77
2022-11-24T11:36:33.495Z,93.88
2022-11-24T11:39:05.089Z,89.58
2022-11-24T11:41:45.200Z,90.02
2022-11-24T11:44:22.807Z,92.85
2022-11-24T11:46:50.535Z,90.74
2022-11-24T11:49:18.664Z,92.55
2022-11-24T11:55:32.402Z,88.70
2022-11-24T11:58:18.046Z,89.03
2022-11-24T12:00:52.216Z,91.86
2022-11-24T12:04:16.025Z,88.93
2022-11-24T12:07:09.406Z,94.37
2022-11-24T12:09:54.348Z,89.28
2022-11-24T12:12:49.025Z,93.20
2022-11-24T12:15:32.181Z,96.77
2022-11-24T12:18:33.109Z,89.52
2022-11-24T12:21:25.949Z,90.80
2022-11-24T12:24:21.763Z,96.18
2022-11-24T12:27:04.522Z,90.36
2022-11-24T12:29:41.237Z,92.56
2022-11-24T12:32:31.121Z,90.38
2022-11-24T12:35:17.131Z,91.49
2022-11-24T12:38:03.321Z,90.91
2022-11-24T12:40:49.502Z,90.08
2022-11-24T12:43:40.005Z,91.75
2022-11-24T12:46:17.307Z,91.69
2022-11-24T12:49:13.020Z,91.82
2022-11-24T12:51:45.032Z,92.01
2022-11-24T12:54:19.915Z,96.87
2022-11-24T12:56:47.500Z,91.69
2022-11-24T12:59:52.348Z,95.90
2022-11-24T13:02:34.871Z,92.73
2022-11-24T13:05:13.631Z,100.00
2022-11-24T13:07:56.131Z,91.87
2022-11-24T13:10:40.454Z,91.94
2022-11-24T13:13:13.720Z,93.22
2022-11-24T13:19:07.564Z,96.05
2022-11-24T13:21:41.701Z,92.01
2022-11-24T13:24:19.720Z,98.35
2022-11-24T13:26:54.590Z,92.99
2022-11-24T13:32:14.841Z,91.28
2022-11-24T13:34:50.142Z,92.87
2022-11-24T13:37:31.168Z,93.34
2022-11-24T13:40:23.236Z,92.91
2022-11-24T13:43:03.302Z,92.32
2022-11-24T13:45:40.834Z,92.78
2022-11-24T13:48:29.432Z,95.40
2022-11-24T13:50:57.285Z,92.54
2022-11-24T13:53:42.015Z,93.98
2022-11-24T13:56:12.712Z,94.00
2022-11-24T13:58:46.751Z,96.54
2022-11-24T14:01:17.433Z,94.97
2022-11-24T14:07:09.721Z,99.07
2022-11-24T14:09:48.399Z,92.32
2022-11-24T14:12:31.698Z,99.08
2022-11-24T14:15:25.268Z,93.77
2022-11-24T14:17:53.192Z,97.66
2022-11-24T14:20:27.244Z,97.69
2022-11-24T14:22:55.330Z,92.23
2022-11-24T14:25:31.014Z,92.14
2022-11-24T14:28:00.771Z,99.42
2022-11-24T14:30:29.283Z,93.25
2022-11-24T14:33:02.049Z,92.73
2022-11-24T14:35:34.730Z,94.12
2022-11-24T14:38:06.590Z,94.17
2022-11-24T14:40:50.222Z,93.79
2022-11-24T14:43:30.766Z,94.89
2022-11-24T14:46:09.620Z,97.82
2022-11-24T14:48:39.716Z,94.25
2022-11-24T14:51:11.034Z,97.36
2022-11-24T14:53:54.096Z,96.38
2022-11-24T14:56:29.044Z,92.69
2022-11-24T14:58:58.414Z,97.07
2022-11-24T15:01:32.982Z,98.56
2022-11-24T15:04:46.186Z,91.88
2022-11-24T15:07:19.197Z,95.35
2022-11-24T15:09:58.351Z,93.41
2022-11-24T15:12:29.238Z,94.46
2022-11-24T15:15:22.730Z,95.43
2022-11-24T15:17:58.010Z,95.02
2022-11-24T15:20:28.720Z,94.78
2022-11-24T15:23:25.074Z,95.28
2022-11-24T15:25:55.018Z,93.99
2022-11-24T15:28:27.305Z,94.15
2022-11-24T15:30:57.314Z,95.79
2022-11-24T15:33:25.880Z,93.94
2022-11-24T15:35:54.371Z,98.37
2022-11-24T15:38:23.271Z,100.00
2022-11-24T15:40:58.256Z,96.44
2022-11-24T15:43:25.960Z,91.93
2022-11-24T15:45:54.294Z,93.39
2022-11-24T15:48:22.352Z,94.45
2022-11-24T15:50:51.124Z,93.96
2022-11-24T15:53:26.244Z,92.94
2022-11-24T15:55:57.725Z,94.79
2022-11-24T15:58:26.165Z,93.07
2022-11-24T16:00:54.264Z,92.22
2022-11-24T16:06:19.053Z,95.61
2022-11-24T16:08:52.124Z,92.16
2022-11-24T16:11:20.045Z,91.50
2022-11-24T16:13:52.267Z,93.89
2022-11-24T16:16:23.426Z,94.90
2022-11-24T16:18:51.569Z,99.63
2022-11-24T16:21:20.385Z,92.85
2022-11-24T16:23:48.967Z,93.09
2022-11-24T16:26:16.829Z,94.36
2022-11-24T16:28:46.096Z,95.59
2022-11-24T16:31:16.478Z,96.91
2022-11-24T16:33:46.645Z,94.50
2022-11-24T16:36:14.990Z,92.42
2022-11-24T16:38:42.891Z,93.68
2022-11-24T16:41:10.901Z,96.35
2022-11-24T16:43:39.405Z,94.11
2022-11-24T16:46:21.356Z,99.04
2022-11-24T16:48:52.186Z,92.99
2022-11-24T16:51:21.938Z,95.11
2022-11-24T16:54:01.820Z,94.14
2022-11-24T16:56:30.672Z,93.02
2022-11-24T16:58:58.891Z,91.66
2022-11-24T17:01:26.816Z,93.96
2022-11-24T17:03:54.648Z,95.22
2022-11-24T17:06:27.228Z,93.82
2022-11-24T17:08:55.907Z,96.40
2022-11-24T17:11:26.285Z,92.12
2022-11-24T17:13:56.065Z,92.65
2022-11-24T17:16:26.370Z,92.42
2022-11-24T17:18:54.656Z,92.76
2022-11-24T17:21:27.817Z,93.14
2022-11-24T17:23:57.022Z,92.31
2022-11-24T17:26:25.613Z,92.64
2022-11-24T17:28:56.616Z,92.40
2022-11-24T17:31:27.982Z,92.17
2022-11-24T17:33:57.871Z,92.66
2022-11-24T17:36:27.724Z,92.61
2022-11-24T17:38:55.703Z,92.82
2022-11-24T17:41:23.625Z,93.69
2022-11-24T17:43:57.325Z,92.60
2022-11-24T17:46:26.774Z,92.28
2022-11-24T17:48:55.697Z,92.77
2022-11-24T17:51:25.298Z,94.35
2022-11-24T17:53:54.374Z,92.59
2022-11-24T17:56:24.600Z,93.29
2022-11-24T17:59:00.165Z,93.44
2022-11-24T18:01:30.409Z,92.96
2022-11-24T18:03:59.338Z,92.55
2022-11-24T18:06:29.057Z,92.34
2022-11-24T18:08:58.183Z,92.31
2022-11-24T18:11:31.837Z,92.59
2022-11-24T18:14:02.889Z,92.13
2022-11-24T18:16:35.137Z,95.66
2022-11-24T18:19:09.317Z,92.05
2022-11-24T18:21:44.966Z,92.44
2022-11-24T18:24:14.193Z,92.46
2022-11-24T18:26:43.065Z,93.03
2022-11-24T18:29:11.987Z,96.05
2022-11-24T18:31:40.297Z,92.88
2022-11-24T18:34:09.052Z,93.83
2022-11-24T18:36:37.021Z,93.29
2022-11-24T18:39:06.861Z,92.20
2022-11-24T18:41:35.962Z,91.59
2022-11-24T18:44:08.120Z,92.42
2022-11-24T18:46:37.264Z,95.34
2022-11-24T18:49:05.695Z,92.47
2022-11-24T18:51:34.025Z,93.13
2022-11-24T18:54:04.256Z,92.91
2022-11-24T18:56:32.101Z,95.54
2022-11-24T18:58:59.889Z,92.23
2022-11-24T19:01:29.713Z,92.25
2022-11-24T19:04:02.357Z,92.24
2022-11-24T19:06:35.736Z,92.65
2022-11-24T19:09:05.348Z,92.10
2022-11-24T19:11:37.391Z,97.99
2022-11-24T19:14:07.669Z,94.63
2022-11-24T19:16:36.654Z,95.63
2022-11-24T19:19:04.986Z,93.08
2022-11-24T19:21:35.035Z,93.38
2022-11-24T19:24:05.662Z,92.99
2022-11-24T19:26:37.449Z,97.35
2022-11-24T19:29:07.029Z,97.96
2022-11-24T19:31:35.312Z,94.15
2022-11-24T19:34:03.857Z,92.52
2022-11-24T19:36:32.329Z,93.04
2022-11-24T19:39:00.329Z,93.36
2022-11-24T19:41:30.581Z,92.89
2022-11-24T19:43:59.539Z,93.23
2022-11-24T19:46:29.935Z,93.05
2022-11-24T19:49:02.657Z,100.00
2022-11-24T19:51:33.253Z,92.18
2022-11-24T19:54:02.225Z,92.67
2022-11-24T19:56:34.259Z,95.41
2022-11-24T19:59:04.383Z,94.88
2022-11-24T20:01:35.193Z,94.87
2022-11-24T20:04:07.715Z,93.33
2022-11-24T20:06:37.891Z,94.04
2022-11-24T20:09:08.828Z,93.58
2022-11-24T20:11:37.272Z,93.43
2022-11-24T20:14:06.427Z,94.70
2022-11-24T20:16:35.716Z,93.21
2022-11-24T20:19:14.968Z,93.13
2022-11-24T20:21:46.703Z,93.27
2022-11-24T20:24:19.521Z,93.26
2022-11-24T20:26:53.472Z,92.69
2022-11-24T20:29:21.719Z,93.26
2022-11-24T20:31:53.074Z,93.24
2022-11-24T20:34:22.057Z,92.41
2022-11-24T20:36:50.260Z,92.44
2022-11-24T20:39:25.573Z,92.89
2022-11-24T20:41:55.195Z,92.88
2022-11-24T20:44:25.176Z,95.18
2022-11-24T20:46:55.937Z,92.84
2022-11-24T20:49:23.927Z,96.56
2022-11-24T20:51:54.720Z,93.52
2022-11-24T20:54:23.305Z,92.52
2022-11-24T20:56:51.101Z,98.54
2022-11-24T20:59:22.128Z,92.65
2022-11-24T21:01:51.757Z,92.85
2022-11-24T21:04:22.918Z,92.68
2022-11-24T21:06:51.422Z,94.98
2022-11-24T21:09:19.905Z,92.38
2022-11-24T21:11:48.227Z,93.27
2022-11-24T21:14:17.329Z,97.58
2022-11-24T21:16:45.703Z,93.13
2022-11-24T21:19:19.090Z,93.11
2022-11-24T21:21:54.577Z,92.33
2022-11-24T21:24:24.924Z,95.01
2022-11-24T21:26:54.145Z,92.40
2022-11-24T21:29:26.237Z,94.41
2022-11-24T21:31:56.454Z,93.20
2022-11-24T21:34:24.461Z,92.72
2022-11-24T21:36:52.181Z,93.07
2022-11-24T21:39:20.471Z,92.32
2022-11-24T21:41:48.452Z,93.71
2022-11-24T21:44:16.508Z,92.90
2022-11-24T21:46:52.725Z,94.48
2022-11-24T21:49:23.983Z,92.60
2022-11-24T21:51:56.433Z,93.82
2022-11-24T21:54:24.571Z,92.47
2022-11-24T21:56:54.049Z,95.93
2022-11-24T21:59:22.663Z,94.27
2022-11-24T22:01:50.580Z,91.96
2022-11-24T22:04:18.817Z,92.99
2022-11-24T22:06:46.706Z,92.72
2022-11-24T22:09:18.005Z,92.45
2022-11-24T22:11:49.540Z,93.74
2022-11-24T22:14:17.436Z,98.11
2022-11-24T22:16:48.243Z,92.43
2022-11-24T22:19:16.460Z,92.78
2022-11-24T22:21:44.357Z,98.91
2022-11-24T22:24:15.352Z,98.08
2022-11-24T22:26:43.608Z,92.18
2022-11-24T22:29:11.381Z,98.36
2022-11-24T22:31:39.257Z,92.15
2022-11-24T22:34:07.605Z,94.30
2022-11-24T22:36:36.987Z,93.50
2022-11-24T22:39:06.079Z,94.13
2022-11-24T22:41:35.690Z,92.80
2022-11-24T22:44:04.391Z,92.19
2022-11-24T22:46:32.621Z,91.83
2022-11-24T22:49:02.115Z,95.88
2022-11-24T22:51:32.800Z,95.88
2022-11-24T22:54:03.062Z,95.06
2022-11-24T22:56:33.940Z,95.63
2022-11-24T22:59:03.489Z,98.71
2022-11-24T23:01:33.909Z,91.92
2022-11-24T23:04:02.742Z,92.49
2022-11-24T23:06:32.386Z,94.34
2022-11-24T23:09:01.501Z,92.68
2022-11-24T23:11:37.460Z,96.06
2022-11-24T23:14:14.705Z,94.20
2022-11-24T23:16:43.879Z,92.27
2022-11-24T23:19:11.758Z,92.95
2022-11-24T23:21:40.015Z,93.52
2022-11-24T23:24:09.130Z,93.15
2022-11-24T23:26:39.614Z,95.00
2022-11-24T23:29:07.927Z,93.17
2022-11-24T23:31:36.734Z,92.84
2022-11-24T23:34:04.719Z,92.90
2022-11-24T23:36:33.398Z,92.72
2022-11-24T23:39:07.418Z,92.90
2022-11-24T23:41:35.483Z,92.52
2022-11-24T23:44:04.395Z,92.87
2022-11-24T23:46:35.405Z,93.14
2022-11-24T23:49:04.026Z,93.54
2022-11-24T23:51:33.598Z,92.62
2022-11-24T23:56:50.190Z,92.85
2022-11-24T23:59:19.211Z,92.29
